createdAt,value
2023-01-20T00:01:27.727Z,2.50
2023-01-20T00:03:56.210Z,2.50
2023-01-20T00:06:23.943Z,2.40
2023-01-20T00:08:52.149Z,2.50
2023-01-20T00:11:19.873Z,2.20
2023-01-20T00:13:46.760Z,2.50
2023-01-20T00:16:14.033Z,2.60
2023-01-20T00:18:41.064Z,2.40
2023-01-20T00:21:10.229Z,5.00
2023-01-20T00:26:12.773Z,2.60
2023-01-20T00:28:39.808Z,2.70
2023-01-20T00:31:18.325Z,2.70
2023-01-20T00:33:46.418Z,2.70
2023-01-20T00:36:14.410Z,2.70
2023-01-20T00:43:36.315Z,2.80
2023-01-20T00:46:04.023Z,2.70
2023-01-20T01:00:53.476Z,2.80
2023-01-20T01:10:41.970Z,2.70
2023-01-20T01:15:36.426Z,2.80
2023-01-20T01:18:03.915Z,2.70
2023-01-20T01:32:47.530Z,2.70
2023-01-20T01:35:14.311Z,2.70
2023-01-20T01:40:09.115Z,2.80
2023-01-20T01:42:36.432Z,2.80
2023-01-20T01:45:12.540Z,2.70
2023-01-20T01:47:54.140Z,2.80
2023-01-20T01:50:25.614Z,2.80
2023-01-20T01:52:55.013Z,2.70
2023-01-20T01:55:26.571Z,2.70
2023-01-20T01:57:54.776Z,2.60
2023-01-20T02:05:17.387Z,2.60
2023-01-20T02:07:46.315Z,2.50
2023-01-20T02:10:13.719Z,2.50
2023-01-20T02:12:42.278Z,2.50
2023-01-20T02:15:09.525Z,2.50
2023-01-20T02:17:50.448Z,2.40
2023-01-20T02:20:32.036Z,2.30
2023-01-20T02:23:26.091Z,2.30
2023-01-20T02:26:04.357Z,2.40
2023-01-20T02:29:21.019Z,2.30
2023-01-20T02:32:35.820Z,2.30
2023-01-20T02:35:29.827Z,2.20
2023-01-20T02:38:23.367Z,2.20
2023-01-20T02:41:01.650Z,2.10
2023-01-20T02:43:57.176Z,1.90
2023-01-20T02:46:28.399Z,1.90
2023-01-20T02:49:16.191Z,1.90
2023-01-20T02:51:58.444Z,1.80
2023-01-20T02:54:29.477Z,1.80
2023-01-20T02:56:58.378Z,1.80
2023-01-20T02:59:28.800Z,1.90
2023-01-20T03:02:03.046Z,1.80
2023-01-20T03:04:36.337Z,1.80
2023-01-20T03:07:04.696Z,1.80
2023-01-20T03:09:37.106Z,1.80
2023-01-20T03:12:32.518Z,1.80
2023-01-20T03:24:48.358Z,2.10
2023-01-20T03:32:11.446Z,2.10
2023-01-20T03:34:42.109Z,2.10
2023-01-20T03:37:10.331Z,2.10
2023-01-20T03:42:16.346Z,2.00
2023-01-20T03:45:05.212Z,2.10
2023-01-20T03:47:58.079Z,2.10
2023-01-20T03:50:44.669Z,-0.90
2023-01-20T03:53:37.421Z,2.10
2023-01-20T03:56:13.963Z,1.90
2023-01-20T03:58:45.591Z,2.00
2023-01-20T04:01:18.646Z,1.90
2023-01-20T04:03:48.568Z,1.70
2023-01-20T04:06:17.743Z,1.80
2023-01-20T04:08:57.635Z,1.70
2023-01-20T04:16:21.285Z,1.80
2023-01-20T04:18:50.524Z,1.80
2023-01-20T04:21:49.475Z,1.80
2023-01-20T04:24:42.260Z,1.80
2023-01-20T04:32:04.050Z,1.80
2023-01-20T04:46:47.277Z,1.80
2023-01-20T04:49:14.663Z,1.70
2023-01-20T04:56:35.471Z,1.80
2023-01-20T05:26:02.564Z,2.20
2023-01-20T05:43:12.996Z,1.80
2023-01-20T05:45:39.799Z,1.90
2023-01-20T05:50:33.516Z,2.30
2023-01-20T06:02:48.441Z,2.00
2023-01-20T06:05:15.397Z,1.90
2023-01-20T06:07:42.351Z,2.00
2023-01-20T06:15:03.920Z,2.20
2023-01-20T06:17:30.549Z,2.10
2023-01-20T06:22:26.000Z,2.30
2023-01-20T06:27:20.211Z,2.30
2023-01-20T06:44:29.591Z,2.50
2023-01-20T06:51:52.007Z,2.40
2023-01-20T07:06:40.087Z,2.20
2023-01-20T07:09:09.051Z,2.30
2023-01-20T07:14:04.194Z,2.30
2023-01-20T07:21:26.696Z,2.30
2023-01-20T07:23:53.593Z,2.30
2023-01-20T07:26:22.715Z,2.30
2023-01-20T07:31:19.975Z,2.30
2023-01-20T07:36:15.163Z,2.40
2023-01-20T07:41:15.643Z,2.10
2023-01-20T07:43:46.350Z,2.40
2023-01-20T07:46:13.676Z,2.30
2023-01-20T07:48:40.525Z,2.30
2023-01-20T07:51:10.258Z,2.20
2023-01-20T07:53:39.557Z,2.20
2023-01-20T07:56:16.076Z,2.20
2023-01-20T08:01:20.687Z,2.20
2023-01-20T08:06:18.269Z,2.30
2023-01-20T08:11:13.753Z,2.10
2023-01-20T08:16:09.686Z,2.30
2023-01-20T08:21:06.787Z,2.30
2023-01-20T08:23:34.650Z,2.30
2023-01-20T08:26:03.389Z,2.40
2023-01-20T08:31:13.833Z,2.50
2023-01-20T08:33:42.496Z,2.50
2023-01-20T08:36:14.295Z,2.60
2023-01-20T08:38:41.995Z,2.70
2023-01-20T08:41:10.485Z,2.70
2023-01-20T08:46:10.514Z,2.90
2023-01-20T08:48:39.309Z,2.70
2023-01-20T08:51:27.106Z,2.70
2023-01-20T08:56:21.163Z,2.60
2023-01-20T08:58:48.597Z,2.60
2023-01-20T09:01:19.245Z,2.70
2023-01-20T09:04:02.931Z,2.60
2023-01-20T09:16:20.283Z,2.40
2023-01-20T09:21:14.326Z,2.60
2023-01-20T09:26:09.797Z,2.80
2023-01-20T09:31:08.889Z,3.00
2023-01-20T09:33:39.014Z,3.00
2023-01-20T09:36:08.106Z,2.90
2023-01-20T09:38:54.050Z,3.00
2023-01-20T09:41:50.449Z,3.20
2023-01-20T09:47:21.669Z,3.10
2023-01-20T09:50:24.691Z,3.10
2023-01-20T09:53:05.843Z,3.00
2023-01-20T09:55:52.069Z,3.00
2023-01-20T09:58:23.471Z,3.10
2023-01-20T10:00:55.537Z,3.10
2023-01-20T10:03:29.909Z,3.10
2023-01-20T10:05:59.696Z,3.10
2023-01-20T10:08:35.294Z,3.00
2023-01-20T10:11:18.231Z,3.00
2023-01-20T10:14:01.740Z,3.00
2023-01-20T10:16:41.921Z,2.90
2023-01-20T10:19:35.051Z,2.80
2023-01-20T10:22:13.186Z,2.80
2023-01-20T10:25:06.318Z,2.70
2023-01-20T10:27:34.623Z,2.60
2023-01-20T10:30:13.691Z,2.60
2023-01-20T10:32:54.325Z,3.30
2023-01-20T10:35:27.361Z,2.70
2023-01-20T10:37:55.804Z,2.80
2023-01-20T10:40:54.880Z,2.80
2023-01-20T10:46:12.313Z,2.80
2023-01-20T10:49:11.498Z,2.80
2023-01-20T10:52:07.342Z,2.90
2023-01-20T10:55:09.412Z,3.00
2023-01-20T10:57:36.697Z,3.10
2023-01-20T11:00:08.082Z,3.10
2023-01-20T11:02:37.807Z,3.20
2023-01-20T11:05:27.360Z,3.30
2023-01-20T11:07:56.268Z,3.40
2023-01-20T11:10:25.607Z,3.40
2023-01-20T11:12:58.090Z,3.50
2023-01-20T11:15:29.982Z,3.50
2023-01-20T11:18:14.677Z,3.50
2023-01-20T11:21:06.509Z,3.60
2023-01-20T11:23:38.653Z,3.60
2023-01-20T11:26:28.276Z,3.70
2023-01-20T11:31:53.783Z,3.70
2023-01-20T11:34:32.363Z,3.80
2023-01-20T11:37:04.981Z,3.90
2023-01-20T11:39:36.569Z,4.00
2023-01-20T11:42:16.691Z,3.90
2023-01-20T11:44:48.347Z,3.90
2023-01-20T11:47:42.462Z,3.90
2023-01-20T11:52:39.046Z,3.90
2023-01-20T11:55:21.074Z,3.90
2023-01-20T11:57:56.126Z,3.90
2023-01-20T12:00:42.547Z,3.90
2023-01-20T12:03:54.883Z,4.10
2023-01-20T12:06:33.715Z,4.00
2023-01-20T12:11:56.222Z,4.10
2023-01-20T12:14:24.889Z,1.90
2023-01-20T12:17:02.771Z,4.30
2023-01-20T12:19:41.538Z,4.00
2023-01-20T12:22:17.729Z,4.40
2023-01-20T12:25:08.050Z,4.30
2023-01-20T12:27:40.933Z,4.30
2023-01-20T12:30:33.034Z,4.20
2023-01-20T12:35:31.135Z,4.20
2023-01-20T12:38:06.732Z,4.20
2023-01-20T12:40:51.071Z,4.30
2023-01-20T12:43:29.674Z,4.30
2023-01-20T12:46:05.014Z,4.40
2023-01-20T12:48:47.115Z,4.30
2023-01-20T12:51:32.206Z,4.40
2023-01-20T12:54:20.392Z,4.40
2023-01-20T12:56:56.089Z,4.20
2023-01-20T12:59:46.375Z,4.40
2023-01-20T13:07:21.651Z,4.20
2023-01-20T13:10:03.506Z,4.30
2023-01-20T13:12:45.225Z,4.30
2023-01-20T13:15:21.000Z,4.30
2023-01-20T13:18:12.328Z,4.30
2023-01-20T13:20:45.394Z,4.40
2023-01-20T13:23:20.257Z,4.40
2023-01-20T13:25:47.848Z,4.60
2023-01-20T13:28:17.472Z,4.50
2023-01-20T13:30:48.247Z,4.40
2023-01-20T13:33:41.790Z,4.60
2023-01-20T13:36:19.269Z,4.60
2023-01-20T13:38:47.657Z,4.60
2023-01-20T13:41:50.743Z,4.60
2023-01-20T13:44:37.249Z,4.60
2023-01-20T13:47:08.230Z,4.60
2023-01-20T13:49:43.845Z,4.60
2023-01-20T13:54:44.550Z,4.60
2023-01-20T13:57:20.426Z,4.60
2023-01-20T14:02:20.253Z,4.50
2023-01-20T14:07:28.042Z,4.50
2023-01-20T14:09:56.574Z,4.40
2023-01-20T14:12:23.652Z,4.40
2023-01-20T14:17:21.744Z,4.40
2023-01-20T14:19:50.400Z,4.40
2023-01-20T14:22:27.647Z,4.30
2023-01-20T14:25:00.392Z,4.20
2023-01-20T14:27:33.467Z,4.20
2023-01-20T14:30:35.888Z,4.20
2023-01-20T14:33:08.806Z,4.20
2023-01-20T14:38:03.027Z,4.10
2023-01-20T14:40:31.893Z,4.00
2023-01-20T14:43:06.663Z,4.10
2023-01-20T14:48:02.411Z,4.10
2023-01-20T14:55:32.038Z,4.00
2023-01-20T15:08:25.281Z,4.10
2023-01-20T15:11:14.689Z,4.10
2023-01-20T15:13:42.965Z,3.90
2023-01-20T15:16:30.013Z,3.60
2023-01-20T15:19:19.636Z,3.70
2023-01-20T15:24:30.461Z,3.70
2023-01-20T15:27:00.509Z,3.70
2023-01-20T15:29:33.406Z,3.70
2023-01-20T15:32:02.527Z,3.90
2023-01-20T16:06:35.032Z,3.10
2023-01-20T16:09:03.365Z,3.10
2023-01-20T16:26:27.105Z,3.70
2023-01-20T16:28:56.687Z,3.20
2023-01-20T16:31:24.548Z,3.10
2023-01-20T16:33:52.936Z,3.10
2023-01-20T17:21:14.494Z,2.60
2023-01-20T17:23:41.805Z,2.50
2023-01-20T17:26:09.453Z,2.50
2023-01-20T17:31:06.232Z,2.90
2023-01-20T17:33:33.688Z,2.30
2023-01-20T17:36:02.747Z,2.30
2023-01-20T17:38:31.691Z,2.20
2023-01-20T17:41:06.004Z,2.20
2023-01-20T17:43:40.751Z,2.10
2023-01-20T17:46:16.073Z,2.20
2023-01-20T17:51:18.579Z,2.10
2023-01-20T17:56:13.991Z,2.00
2023-01-20T17:58:42.757Z,2.00
2023-01-20T18:01:21.493Z,2.00
2023-01-20T18:03:50.319Z,2.10
2023-01-20T18:06:19.170Z,1.90
2023-01-20T18:08:50.924Z,1.90
2023-01-20T18:13:47.345Z,1.90
2023-01-20T18:16:18.024Z,1.70
2023-01-20T18:18:46.152Z,1.90
2023-01-20T18:21:23.998Z,1.90
2023-01-20T18:23:51.868Z,1.90
2023-01-20T18:26:21.897Z,1.80
2023-01-20T18:28:49.056Z,1.80
2023-01-20T18:31:18.820Z,1.70
2023-01-20T18:33:48.071Z,1.80
2023-01-20T18:36:17.695Z,1.80
2023-01-20T18:38:52.723Z,1.70
2023-01-20T18:41:20.162Z,1.60
2023-01-20T18:48:45.805Z,1.60
2023-01-20T18:51:15.081Z,1.40
2023-01-20T18:53:43.534Z,1.50
2023-01-20T18:56:12.734Z,1.40
2023-01-20T19:01:11.851Z,1.40
2023-01-20T19:18:23.113Z,1.30
2023-01-20T19:23:17.475Z,0.90
2023-01-20T19:28:13.061Z,0.90
2023-01-20T19:33:11.993Z,0.90
2023-01-20T19:40:35.927Z,0.80
2023-01-20T19:48:12.337Z,0.70
2023-01-20T19:53:06.355Z,0.60
2023-01-20T19:57:59.986Z,0.70
2023-01-20T20:00:26.581Z,0.40
2023-01-20T20:20:07.425Z,0.40
2023-01-20T20:42:15.538Z,0.10
2023-01-20T20:47:09.276Z,0.20
2023-01-20T20:49:35.875Z,0.20
2023-01-20T21:01:52.230Z,0.10
2023-01-20T21:23:59.575Z,-0.10
2023-01-20T21:26:30.267Z,-0.10
2023-01-20T21:29:01.471Z,-0.10
2023-01-20T21:33:58.325Z,-0.10
2023-01-20T21:36:26.380Z,-0.10
2023-01-20T21:44:11.507Z,0.00
2023-01-20T21:46:40.336Z,-0.10
2023-01-20T21:49:26.957Z,-0.10
2023-01-20T21:52:13.510Z,-0.20
2023-01-20T22:16:45.133Z,-0.20
2023-01-20T22:19:13.453Z,-0.10
2023-01-20T22:21:40.580Z,-0.10
2023-01-20T22:26:34.768Z,-0.40
2023-01-20T22:33:58.066Z,-0.40
2023-01-20T22:36:25.019Z,-0.40
2023-01-20T22:38:52.844Z,-0.40
2023-01-20T22:41:20.669Z,-0.30
2023-01-20T22:43:48.118Z,0.10
2023-01-20T22:46:17.073Z,-0.40
2023-01-20T22:48:44.447Z,-0.40
2023-01-20T22:51:13.589Z,-0.40
2023-01-20T22:53:40.743Z,-0.40
2023-01-20T22:56:13.884Z,-0.40
2023-01-20T22:58:41.347Z,-0.40
2023-01-20T23:01:18.198Z,-0.50
2023-01-20T23:03:45.643Z,-0.50
2023-01-20T23:11:12.893Z,-0.50
2023-01-20T23:13:40.286Z,-0.50
2023-01-20T23:16:10.286Z,-0.50
2023-01-20T23:21:05.852Z,-0.60
2023-01-20T23:23:33.372Z,-0.70
2023-01-20T23:26:20.958Z,-0.50
2023-01-20T23:31:17.461Z,-0.60
2023-01-20T23:36:20.379Z,-0.60
2023-01-20T23:41:15.261Z,-0.70
2023-01-20T23:43:42.382Z,-0.70
2023-01-20T23:46:10.371Z,-0.70
2023-01-20T23:48:37.467Z,-0.80
2023-01-20T23:53:37.831Z,-0.70
2023-01-20T23:56:26.006Z,-0.70
